createdAt,value
2022-08-20T00:00:44.208Z,100801.41
2022-08-20T00:03:11.542Z,100792.91
2022-08-20T00:05:38.507Z,100796.13
2022-08-20T00:08:04.402Z,100796.25
2022-08-20T00:10:30.319Z,100805.28
2022-08-20T00:12:54.924Z,100804.03
2022-08-20T00:15:24.482Z,100802.97
2022-08-20T00:17:48.441Z,100803.81
2022-08-20T00:20:15.136Z,100797.50
2022-08-20T00:22:38.936Z,100800.50
2022-08-20T00:25:02.898Z,100807.59
2022-08-20T00:27:26.515Z,100805.06
2022-08-20T00:29:50.139Z,100811.31
2022-08-20T00:32:15.160Z,100808.34
2022-08-20T00:34:38.836Z,100807.69
2022-08-20T00:37:02.512Z,100814.91
2022-08-20T00:39:26.129Z,100808.84
2022-08-20T00:41:49.782Z,100815.53
2022-08-20T00:44:16.956Z,100802.88
2022-08-20T00:46:43.511Z,100808.94
2022-08-20T00:49:12.471Z,100807.56
2022-08-20T00:51:41.611Z,100801.63
2022-08-20T00:54:11.596Z,100807.91
2022-08-20T00:56:36.507Z,100807.53
2022-08-20T00:59:00.698Z,100806.66
2022-08-20T01:01:24.448Z,100803.38
2022-08-20T01:03:48.133Z,100810.69
2022-08-20T01:06:13.151Z,100809.22
2022-08-20T01:08:37.312Z,100804.38
2022-08-20T01:11:10.018Z,100816.00
2022-08-20T01:13:33.794Z,100815.25
2022-08-20T01:15:58.260Z,100817.22
2022-08-20T01:18:26.831Z,100815.38
2022-08-20T01:20:53.958Z,100819.59
2022-08-20T01:23:28.170Z,100821.28
2022-08-20T01:26:00.324Z,100825.50
2022-08-20T01:28:31.827Z,100822.53
2022-08-20T01:30:56.335Z,100828.25
2022-08-20T01:33:20.771Z,100822.56
2022-08-20T01:35:45.807Z,100821.97
2022-08-20T01:38:10.947Z,100815.81
2022-08-20T01:40:56.505Z,100817.00
2022-08-20T01:43:21.400Z,100825.28
2022-08-20T01:45:46.291Z,100835.50
2022-08-20T01:48:14.472Z,100830.09
2022-08-20T01:50:43.375Z,100825.59
2022-08-20T01:53:16.346Z,100832.16
2022-08-20T01:55:40.334Z,100828.69
2022-08-20T01:58:05.761Z,100830.78
2022-08-20T02:00:29.794Z,100839.53
2022-08-20T02:02:53.475Z,100833.41
2022-08-20T02:05:18.094Z,100839.78
2022-08-20T02:07:41.935Z,100839.25
2022-08-20T02:10:08.299Z,100841.09
2022-08-20T02:12:31.951Z,100839.84
2022-08-20T02:14:57.444Z,100837.91
2022-08-20T02:17:23.706Z,100841.28
2022-08-20T02:19:51.056Z,100844.34
2022-08-20T02:22:22.133Z,100840.88
2022-08-20T02:24:45.896Z,100838.59
2022-08-20T02:27:09.517Z,100847.09
2022-08-20T02:29:33.294Z,100843.97
2022-08-20T02:32:24.450Z,100848.97
2022-08-20T02:34:42.285Z,100840.31
2022-08-20T02:37:08.707Z,100844.06
2022-08-20T02:39:32.715Z,100846.50
2022-08-20T02:41:56.453Z,100843.81
2022-08-20T02:44:21.072Z,100848.50
2022-08-20T02:46:44.695Z,100850.13
2022-08-20T02:49:09.822Z,100847.16
2022-08-20T02:51:33.446Z,100857.44
2022-08-20T02:53:57.144Z,100852.47
2022-08-20T02:56:21.029Z,100861.50
2022-08-20T02:58:44.918Z,100862.00
2022-08-20T03:01:19.169Z,100858.53
2022-08-20T03:03:44.379Z,100854.34
2022-08-20T03:06:11.151Z,100856.25
2022-08-20T03:08:35.275Z,100853.28
2022-08-20T03:10:59.130Z,100848.63
2022-08-20T03:13:24.412Z,100842.59
2022-08-20T03:15:57.941Z,100837.31
2022-08-20T03:18:24.146Z,100835.28
2022-08-20T03:20:52.109Z,100831.25
2022-08-20T03:23:19.896Z,100833.41
2022-08-20T03:25:44.034Z,100835.34
2022-08-20T03:28:08.491Z,100822.78
2022-08-20T03:30:33.082Z,100818.69
2022-08-20T03:32:57.279Z,100827.88
2022-08-20T03:35:25.058Z,100824.16
2022-08-20T03:37:48.941Z,100818.16
2022-08-20T03:40:19.794Z,100814.38
2022-08-20T03:42:43.648Z,100813.88
2022-08-20T03:45:09.187Z,100816.19
2022-08-20T03:47:32.915Z,100814.66
2022-08-20T03:50:00.444Z,100816.66
2022-08-20T03:52:24.115Z,100813.44
2022-08-20T03:54:47.747Z,100818.44
2022-08-20T03:57:15.594Z,100825.47
2022-08-20T03:59:39.242Z,100812.69
2022-08-20T04:02:02.965Z,100817.88
2022-08-20T04:04:26.789Z,100831.47
2022-08-20T04:06:50.550Z,100832.94
2022-08-20T04:09:14.496Z,100828.19
2022-08-20T04:11:38.247Z,100839.66
2022-08-20T04:14:03.239Z,100834.06
2022-08-20T04:16:28.580Z,100839.06
2022-08-20T04:19:01.335Z,100831.38
2022-08-20T04:21:26.415Z,100848.19
2022-08-20T04:23:56.670Z,100850.50
2022-08-20T04:26:21.695Z,100854.34
2022-08-20T04:28:45.327Z,100849.09
2022-08-20T04:31:12.980Z,100860.06
2022-08-20T04:33:36.632Z,100857.50
2022-08-20T04:36:02.812Z,100855.50
2022-08-20T04:38:26.455Z,100851.75
2022-08-20T04:41:10.103Z,100862.00
2022-08-20T04:43:46.190Z,100852.66
2022-08-20T04:46:11.684Z,100862.97
2022-08-20T04:48:36.139Z,100854.94
2022-08-20T04:51:02.554Z,100859.63
2022-08-20T04:53:30.111Z,100865.03
2022-08-20T04:55:55.678Z,100860.59
2022-08-20T04:58:23.095Z,100859.94
2022-08-20T05:00:49.257Z,100860.66
2022-08-20T05:03:14.368Z,100860.75
2022-08-20T05:05:38.283Z,100858.25
2022-08-20T05:08:02.719Z,100853.78
2022-08-20T05:10:26.859Z,100859.84
2022-08-20T05:12:56.715Z,100860.41
2022-08-20T05:15:21.809Z,100863.44
2022-08-20T05:17:45.671Z,100877.25
2022-08-20T05:20:16.610Z,100875.41
2022-08-20T05:22:40.387Z,100874.22
2022-08-20T05:25:04.477Z,100874.66
2022-08-20T05:27:28.256Z,100896.13
2022-08-20T05:29:53.432Z,100885.19
2022-08-20T05:32:17.939Z,100883.53
2022-08-20T05:34:41.592Z,100885.09
2022-08-20T05:37:07.723Z,100884.19
2022-08-20T05:39:35.490Z,100883.94
2022-08-20T05:42:01.084Z,100878.59
2022-08-20T05:44:24.715Z,100887.28
2022-08-20T05:46:49.651Z,100882.72
2022-08-20T05:49:22.589Z,100880.28
2022-08-20T05:51:46.668Z,100881.38
2022-08-20T05:54:12.467Z,100882.50
2022-08-20T05:56:37.340Z,100879.53
2022-08-20T05:59:03.976Z,100879.41
2022-08-20T06:01:27.740Z,100879.75
2022-08-20T06:04:08.720Z,100875.63
2022-08-20T06:06:44.659Z,100876.38
2022-08-20T06:09:12.111Z,100880.88
2022-08-20T06:11:37.419Z,100876.06
2022-08-20T06:14:01.566Z,100880.78
2022-08-20T06:16:25.175Z,100885.91
2022-08-20T06:18:52.820Z,100890.13
2022-08-20T06:21:21.724Z,100888.97
2022-08-20T06:23:56.451Z,100897.41
2022-08-20T06:26:24.167Z,100895.97
2022-08-20T06:28:54.096Z,100896.09
2022-08-20T06:31:17.855Z,100904.19
2022-08-20T06:33:42.467Z,100910.56
2022-08-20T06:36:07.083Z,100911.75
2022-08-20T06:38:32.646Z,100922.63
2022-08-20T06:40:56.247Z,100921.44
2022-08-20T06:43:21.502Z,100927.59
2022-08-20T06:45:45.139Z,100918.28
2022-08-20T06:48:15.374Z,100917.19
2022-08-20T06:50:47.972Z,100912.06
2022-08-20T06:53:14.736Z,100924.09
2022-08-20T06:55:41.700Z,100918.16
2022-08-20T06:58:30.464Z,100926.16
2022-08-20T07:01:04.924Z,100931.66
2022-08-20T07:03:34.449Z,100923.97
2022-08-20T07:05:59.366Z,100923.91
2022-08-20T07:08:23.212Z,100924.03
2022-08-20T07:10:47.203Z,100925.00
2022-08-20T07:13:11.548Z,100926.72
2022-08-20T07:15:35.356Z,100921.75
2022-08-20T07:18:04.763Z,100929.66
2022-08-20T07:20:29.499Z,100925.00
2022-08-20T07:22:53.308Z,100932.78
2022-08-20T07:25:22.574Z,100933.09
2022-08-20T07:27:47.235Z,100935.88
2022-08-20T07:30:32.391Z,100942.41
2022-08-20T07:33:17.737Z,100952.19
2022-08-20T07:35:42.566Z,100957.69
2022-08-20T07:38:07.388Z,100964.06
2022-08-20T07:40:36.148Z,100962.81
2022-08-20T07:43:02.999Z,100964.50
2022-08-20T07:45:27.464Z,100965.38
2022-08-20T07:47:53.655Z,100975.66
2022-08-20T07:50:21.979Z,100969.59
2022-08-20T07:52:45.747Z,100963.28
2022-08-20T07:55:12.827Z,100966.91
2022-08-20T07:57:36.523Z,100958.13
2022-08-20T08:00:00.448Z,100954.84
2022-08-20T08:02:24.252Z,100954.09
2022-08-20T08:04:47.843Z,100960.47
2022-08-20T08:07:13.111Z,100954.06
2022-08-20T08:09:37.486Z,100957.50
2022-08-20T08:12:03.077Z,100962.63
2022-08-20T08:14:31.537Z,100960.66
2022-08-20T08:16:57.349Z,100972.69
2022-08-20T08:19:21.452Z,100969.97
2022-08-20T08:21:45.589Z,100971.81
2022-08-20T08:24:11.702Z,100981.97
2022-08-20T08:26:37.287Z,100978.47
2022-08-20T08:29:00.903Z,100974.31
2022-08-20T08:31:25.696Z,100984.00
2022-08-20T08:33:49.302Z,100995.66
2022-08-20T08:36:16.334Z,100985.94
2022-08-20T08:38:45.163Z,100981.72
2022-08-20T08:41:19.118Z,100994.03
2022-08-20T08:43:43.524Z,100983.69
2022-08-20T08:46:12.434Z,100984.56
2022-08-20T08:48:39.719Z,100982.81
2022-08-20T08:51:07.564Z,100976.47
2022-08-20T08:53:38.119Z,100974.28
2022-08-20T08:56:03.103Z,100977.38
2022-08-20T08:58:28.182Z,100979.69
2022-08-20T09:00:56.088Z,100980.75
2022-08-20T09:03:29.375Z,100985.66
2022-08-20T09:05:58.592Z,100986.84
2022-08-20T09:08:28.012Z,100984.34
2022-08-20T09:10:52.311Z,100991.75
2022-08-20T09:13:15.980Z,100986.69
2022-08-20T09:15:40.987Z,100986.94
2022-08-20T09:18:04.784Z,100995.16
2022-08-20T09:20:28.702Z,101005.53
2022-08-20T09:22:52.476Z,100999.81
2022-08-20T09:25:16.277Z,100996.63
2022-08-20T09:27:39.935Z,101003.81
2022-08-20T09:30:08.983Z,101002.09
2022-08-20T09:32:34.088Z,101006.34
2022-08-20T09:34:58.962Z,101011.84
2022-08-20T09:37:23.456Z,101012.22
2022-08-20T09:39:48.655Z,101002.97
2022-08-20T09:42:14.843Z,101004.38
2022-08-20T09:44:38.732Z,101006.44
2022-08-20T09:47:02.387Z,101007.81
2022-08-20T09:49:27.463Z,101008.53
2022-08-20T09:51:51.235Z,101009.84
2022-08-20T09:54:15.056Z,101007.81
2022-08-20T09:56:38.723Z,101008.41
2022-08-20T09:59:03.016Z,101003.72
2022-08-20T10:01:26.848Z,101007.59
2022-08-20T10:03:51.406Z,101008.94
2022-08-20T10:06:17.913Z,101003.63
2022-08-20T10:08:41.742Z,101006.84
2022-08-20T10:11:05.556Z,101008.31
2022-08-20T10:13:29.182Z,101008.13
2022-08-20T10:15:52.843Z,101008.88
2022-08-20T10:18:16.554Z,101005.09
2022-08-20T10:20:40.332Z,101009.41
2022-08-20T10:23:06.312Z,101004.31
2022-08-20T10:25:30.051Z,101011.00
2022-08-20T10:27:53.762Z,101007.28
2022-08-20T10:30:17.556Z,101001.56
2022-08-20T10:32:41.198Z,101005.78
2022-08-20T10:35:06.568Z,101013.63
2022-08-20T10:37:30.240Z,101010.66
2022-08-20T10:39:55.982Z,101008.97
2022-08-20T10:42:19.735Z,101005.19
2022-08-20T10:44:43.619Z,101008.50
2022-08-20T10:47:17.966Z,101005.28
2022-08-20T10:49:41.696Z,101003.00
2022-08-20T10:52:06.200Z,101006.00
2022-08-20T10:54:29.913Z,101006.59
2022-08-20T10:56:54.931Z,101009.78
2022-08-20T10:59:19.856Z,101002.59
2022-08-20T11:01:43.498Z,101012.75
2022-08-20T11:04:07.254Z,101011.91
2022-08-20T11:06:32.092Z,101015.19
2022-08-20T11:08:56.996Z,101013.72
2022-08-20T11:11:20.850Z,101014.78
2022-08-20T11:13:45.887Z,101018.44
2022-08-20T11:16:09.548Z,101019.22
2022-08-20T11:18:34.149Z,101023.56
2022-08-20T11:20:58.085Z,101018.50
2022-08-20T11:23:21.817Z,101017.97
2022-08-20T11:25:45.475Z,101021.41
2022-08-20T11:28:09.354Z,101020.22
2022-08-20T11:30:37.395Z,101020.22
2022-08-20T11:33:02.931Z,101018.91
2022-08-20T11:35:48.979Z,101024.22
2022-08-20T11:38:12.473Z,101022.69
2022-08-20T11:40:36.132Z,101023.69
2022-08-20T11:43:17.011Z,101024.28
2022-08-20T11:45:43.378Z,101026.19
2022-08-20T11:48:07.199Z,101022.28
2022-08-20T11:50:30.881Z,101028.09
2022-08-20T11:52:54.486Z,101020.41
2022-08-20T11:55:19.336Z,101022.50
2022-08-20T11:57:48.815Z,101031.38
2022-08-20T12:00:17.087Z,101023.91
2022-08-20T12:02:42.910Z,101033.75
2022-08-20T12:05:08.510Z,101033.03
2022-08-20T12:07:32.124Z,101037.41
2022-08-20T12:09:55.927Z,101032.25
2022-08-20T12:12:23.376Z,101034.38
2022-08-20T12:14:47.130Z,101033.72
2022-08-20T12:17:11.616Z,101040.03
2022-08-20T12:19:39.344Z,101035.00
2022-08-20T12:22:21.308Z,101035.72
2022-08-20T12:24:47.187Z,101032.41
2022-08-20T12:27:12.527Z,101033.06
2022-08-20T12:29:36.227Z,101036.22
2022-08-20T12:32:00.880Z,101042.75
2022-08-20T12:34:24.563Z,101039.41
2022-08-20T12:36:49.577Z,101040.78
2022-08-20T12:39:13.288Z,101038.84
2022-08-20T12:41:36.931Z,101049.00
2022-08-20T12:44:04.935Z,101050.53
2022-08-20T12:46:28.576Z,101047.09
2022-08-20T12:48:53.490Z,101047.59
2022-08-20T12:51:17.102Z,101047.88
2022-08-20T12:53:42.134Z,101053.72
2022-08-20T12:56:06.810Z,101051.84
2022-08-20T12:58:30.506Z,101057.53
2022-08-20T13:00:54.271Z,101052.28
2022-08-20T13:03:17.955Z,101051.84
2022-08-20T13:05:42.441Z,101051.84
2022-08-20T13:08:09.385Z,101051.22
2022-08-20T13:10:37.325Z,101051.22
2022-08-20T13:13:03.106Z,101045.75
2022-08-20T13:15:27.481Z,101048.50
2022-08-20T13:17:53.793Z,101041.91
2022-08-20T13:20:20.015Z,101053.31
2022-08-20T13:22:44.432Z,101049.69
2022-08-20T13:25:10.348Z,101053.13
2022-08-20T13:27:38.341Z,101052.00
2022-08-20T13:30:01.971Z,101061.56
2022-08-20T13:32:25.722Z,101060.94
2022-08-20T13:34:49.447Z,101055.03
2022-08-20T13:37:15.007Z,101059.03
2022-08-20T13:39:40.741Z,101061.38
2022-08-20T13:42:04.524Z,101058.38
2022-08-20T13:44:32.940Z,101062.91
2022-08-20T13:46:57.059Z,101063.91
2022-08-20T13:49:20.692Z,101058.41
2022-08-20T13:51:44.407Z,101057.56
2022-08-20T13:54:10.840Z,101049.53
2022-08-20T13:56:34.868Z,101045.31
2022-08-20T13:58:58.504Z,101050.59
2022-08-20T14:01:23.632Z,101049.97
2022-08-20T14:03:47.893Z,101060.72
2022-08-20T14:06:12.330Z,101062.00
2022-08-20T14:08:35.959Z,101060.31
2022-08-20T14:10:59.714Z,101059.47
2022-08-20T14:13:26.215Z,101054.41
2022-08-20T14:15:49.994Z,101046.56
2022-08-20T14:18:16.700Z,101045.88
2022-08-20T14:20:40.492Z,101043.13
2022-08-20T14:23:04.656Z,101038.69
2022-08-20T14:25:29.092Z,101039.31
2022-08-20T14:27:53.400Z,101044.38
2022-08-20T14:30:21.719Z,101043.72
2022-08-20T14:32:45.480Z,101038.66
2022-08-20T14:35:11.912Z,101053.91
2022-08-20T14:37:39.062Z,101055.34
2022-08-20T14:40:07.467Z,101050.28
2022-08-20T14:42:31.894Z,101050.91
2022-08-20T14:44:56.464Z,101053.00
2022-08-20T14:47:23.230Z,101051.34
2022-08-20T14:49:48.252Z,101056.81
2022-08-20T14:52:14.270Z,101057.69
2022-08-20T14:54:38.211Z,101054.03
2022-08-20T14:57:02.352Z,101053.19
2022-08-20T14:59:26.037Z,101055.13
2022-08-20T15:01:49.671Z,101058.03
2022-08-20T15:04:13.359Z,101059.56
2022-08-20T15:06:38.724Z,101055.97
2022-08-20T15:09:03.891Z,101051.34
2022-08-20T15:11:33.601Z,101053.88
2022-08-20T15:13:58.214Z,101057.47
2022-08-20T15:16:21.839Z,101056.84
2022-08-20T15:18:45.557Z,101057.25
2022-08-20T15:21:10.293Z,101058.59
2022-08-20T15:23:34.065Z,101066.69
2022-08-20T15:25:59.291Z,101058.88
2022-08-20T15:28:23.036Z,101074.75
2022-08-20T15:30:46.665Z,101064.44
2022-08-20T15:33:11.809Z,101069.34
2022-08-20T15:35:35.466Z,101069.84
2022-08-20T15:38:00.766Z,101066.28
2022-08-20T15:40:28.472Z,101066.88
2022-08-20T15:42:53.897Z,101067.34
2022-08-20T15:45:21.680Z,101055.69
2022-08-20T15:48:01.087Z,101062.19
2022-08-20T15:50:45.478Z,101060.75
2022-08-20T15:53:19.130Z,101061.66
2022-08-20T15:55:55.371Z,101062.50
2022-08-20T15:58:32.896Z,101055.91
2022-08-20T16:01:24.509Z,101060.81
2022-08-20T16:04:29.979Z,101059.13
2022-08-20T16:06:59.140Z,101061.03
2022-08-20T16:09:48.710Z,101062.28
2022-08-20T16:12:19.035Z,101059.34
2022-08-20T16:14:48.483Z,101057.66
2022-08-20T16:17:17.155Z,101054.72
2022-08-20T16:19:54.364Z,101060.59
2022-08-20T16:22:20.951Z,101063.19
2022-08-20T16:24:44.667Z,101062.94
2022-08-20T16:27:15.991Z,101066.00
2022-08-20T16:29:52.454Z,101072.19
2022-08-20T16:32:34.827Z,101071.34
2022-08-20T16:35:05.488Z,101072.38
2022-08-20T16:37:47.067Z,101085.91
2022-08-20T16:40:24.349Z,101083.81
2022-08-20T16:42:52.302Z,101088.66
2022-08-20T16:45:22.995Z,101086.09
2022-08-20T16:47:49.075Z,101089.91
2022-08-20T16:50:19.887Z,101091.78
2022-08-20T16:52:46.901Z,101088.84
2022-08-20T16:55:10.823Z,101096.44
2022-08-20T16:57:34.579Z,101092.84
2022-08-20T17:00:12.412Z,101088.22
2022-08-20T17:02:38.618Z,101088.81
2022-08-20T17:05:06.665Z,101087.34
2022-08-20T17:07:49.413Z,101092.84
2022-08-20T17:10:22.333Z,101093.66
2022-08-20T17:12:47.087Z,101090.88
2022-08-20T17:15:23.910Z,101095.53
2022-08-20T17:17:49.119Z,101094.88
2022-08-20T17:20:20.574Z,101100.81
2022-08-20T17:22:48.539Z,101098.97
2022-08-20T17:25:19.642Z,101100.41
2022-08-20T17:27:43.339Z,101109.69
2022-08-20T17:30:22.727Z,101109.84
2022-08-20T17:33:00.654Z,101108.38
2022-08-20T17:35:32.146Z,101108.09
2022-08-20T17:37:56.710Z,101098.38
2022-08-20T17:40:27.625Z,101106.38
2022-08-20T17:42:56.964Z,101112.03
2022-08-20T17:45:26.431Z,101105.69
2022-08-20T17:47:50.233Z,101105.34
2022-08-20T17:50:22.000Z,101110.69
2022-08-20T17:52:50.725Z,101104.97
2022-08-20T17:55:14.988Z,101115.34
2022-08-20T17:57:43.962Z,101110.84
2022-08-20T18:00:14.353Z,101112.28
2022-08-20T18:02:38.003Z,101115.81
2022-08-20T18:05:02.164Z,101122.97
2022-08-20T18:07:31.307Z,101119.31
2022-08-20T18:10:01.744Z,101120.38
2022-08-20T18:12:35.350Z,101121.50
2022-08-20T18:15:07.745Z,101127.38
2022-08-20T18:17:58.083Z,101123.81
2022-08-20T18:21:10.671Z,101132.22
2022-08-20T18:23:41.334Z,101128.66
2022-08-20T18:26:11.360Z,101125.88
2022-08-20T18:31:07.509Z,101119.66
2022-08-20T18:33:37.435Z,101132.88
2022-08-20T18:36:09.641Z,101128.94
2022-08-20T18:38:37.273Z,101129.44
2022-08-20T18:41:10.291Z,101127.72
2022-08-20T18:43:34.093Z,101125.72
2022-08-20T18:45:57.967Z,101130.72
2022-08-20T18:48:23.556Z,101130.94
2022-08-20T18:50:55.141Z,101135.16
2022-08-20T18:53:22.440Z,101138.47
2022-08-20T18:56:00.132Z,101141.31
2022-08-20T18:58:33.540Z,101141.09
2022-08-20T19:00:57.390Z,101144.78
2022-08-20T19:03:27.680Z,101139.59
2022-08-20T19:06:21.037Z,101145.06
2022-08-20T19:08:51.371Z,101150.44
2022-08-20T19:11:43.287Z,101151.75
2022-08-20T19:14:47.867Z,101150.06
2022-08-20T19:17:18.128Z,101155.78
2022-08-20T19:19:42.044Z,101150.31
2022-08-20T19:22:06.599Z,101150.63
2022-08-20T19:24:35.783Z,101152.44
2022-08-20T19:27:05.596Z,101157.88
2022-08-20T19:29:32.467Z,101155.25
2022-08-20T19:32:00.083Z,101150.63
2022-08-20T19:34:25.873Z,101165.31
2022-08-20T19:36:56.578Z,101157.66
2022-08-20T19:39:25.543Z,101158.72
2022-08-20T19:41:57.029Z,101154.22
2022-08-20T19:44:35.312Z,101155.13
2022-08-20T19:47:00.086Z,101161.63
2022-08-20T19:49:31.502Z,101154.66
2022-08-20T19:52:13.816Z,101158.63
2022-08-20T19:54:49.321Z,101155.41
2022-08-20T19:57:13.355Z,101152.47
2022-08-20T19:59:38.395Z,101156.34
2022-08-20T20:02:20.425Z,101157.47
2022-08-20T20:04:55.033Z,101162.09
2022-08-20T20:07:23.388Z,101158.69
2022-08-20T20:09:48.913Z,101164.25
2022-08-20T20:12:22.584Z,101158.91
2022-08-20T20:14:49.041Z,101155.28
2022-08-20T20:17:22.949Z,101155.69
2022-08-20T20:19:47.850Z,101157.34
2022-08-20T20:22:19.626Z,101158.69
2022-08-20T20:24:48.580Z,101163.75
2022-08-20T20:27:21.718Z,101159.16
2022-08-20T20:29:47.350Z,101157.53
2022-08-20T20:32:20.953Z,101160.47
2022-08-20T20:34:54.958Z,101163.09
2022-08-20T20:37:44.637Z,101163.50
2022-08-20T20:40:25.266Z,101158.41
2022-08-20T20:43:01.867Z,101162.00
2022-08-20T20:45:34.665Z,101162.00
2022-08-20T20:47:58.543Z,101162.84
2022-08-20T20:50:32.661Z,101163.69
2022-08-20T20:52:57.226Z,101162.19
2022-08-20T20:55:27.592Z,101157.38
2022-08-20T20:57:51.775Z,101157.56
2022-08-20T21:00:18.288Z,101165.00
2022-08-20T21:02:44.024Z,101163.84
2022-08-20T21:05:08.629Z,101162.44
2022-08-20T21:07:32.323Z,101160.06
2022-08-20T21:09:58.318Z,101162.63
2022-08-20T21:12:22.387Z,101158.22
2022-08-20T21:14:46.176Z,101154.59
2022-08-20T21:17:14.586Z,101152.06
2022-08-20T21:19:41.120Z,101145.59
2022-08-20T21:22:09.312Z,101149.34
2022-08-20T21:24:33.010Z,101149.81
2022-08-20T21:26:58.495Z,101146.22
2022-08-20T21:29:30.553Z,101153.50
2022-08-20T21:31:56.400Z,101154.53
2022-08-20T21:34:20.886Z,101154.69
2022-08-20T21:36:46.650Z,101154.31
2022-08-20T21:39:10.961Z,101151.59
2022-08-20T21:41:35.491Z,101160.81
2022-08-20T21:44:00.411Z,101151.78
2022-08-20T21:46:25.236Z,101152.63
2022-08-20T21:48:48.921Z,101150.84
2022-08-20T21:51:12.598Z,101149.69
2022-08-20T21:53:37.784Z,101154.81
2022-08-20T21:56:01.487Z,101148.47
2022-08-20T21:58:25.527Z,101142.28
2022-08-20T22:00:55.250Z,101145.38
2022-08-20T22:03:20.059Z,101137.56
2022-08-20T22:05:44.182Z,101131.81
2022-08-20T22:08:09.511Z,101129.94
2022-08-20T22:10:34.617Z,101130.78
2022-08-20T22:12:58.382Z,101134.09
2022-08-20T22:15:22.228Z,101127.56
2022-08-20T22:17:45.965Z,101130.03
2022-08-20T22:20:11.043Z,101124.69
2022-08-20T22:22:34.991Z,101130.63
2022-08-20T22:24:58.686Z,101127.03
2022-08-20T22:27:23.816Z,101133.03
2022-08-20T22:29:47.430Z,101122.13
2022-08-20T22:32:11.230Z,101124.84
2022-08-20T22:34:36.967Z,101132.00
2022-08-20T22:37:02.095Z,101130.03
2022-08-20T22:39:25.856Z,101132.31
2022-08-20T22:41:49.523Z,101125.59
2022-08-20T22:44:14.547Z,101134.72
2022-08-20T22:46:47.083Z,101123.59
2022-08-20T22:49:17.238Z,101126.63
2022-08-20T22:51:43.488Z,101128.72
2022-08-20T22:54:10.333Z,101127.75
2022-08-20T22:56:34.054Z,101132.94
2022-08-20T22:58:59.549Z,101138.78
2022-08-20T23:01:24.774Z,101134.47
2022-08-20T23:03:48.511Z,101135.41
2022-08-20T23:06:13.841Z,101134.19
2022-08-20T23:08:37.930Z,101137.06
2022-08-20T23:11:01.558Z,101134.19
2022-08-20T23:13:25.198Z,101139.25
2022-08-20T23:15:48.869Z,101138.41
2022-08-20T23:18:17.902Z,101139.88
2022-08-20T23:20:42.806Z,101136.59
2022-08-20T23:23:07.751Z,101141.41
2022-08-20T23:25:31.543Z,101132.34
2022-08-20T23:28:04.206Z,101131.13
2022-08-20T23:30:29.375Z,101129.44
2022-08-20T23:32:53.404Z,101132.16
2022-08-20T23:35:18.825Z,101134.78
2022-08-20T23:37:46.583Z,101137.34
2022-08-20T23:40:13.258Z,101132.59
2022-08-20T23:42:37.011Z,101136.34
2022-08-20T23:45:01.640Z,101138.25
2022-08-20T23:47:25.403Z,101140.09
2022-08-20T23:49:49.150Z,101129.38
2022-08-20T23:52:14.203Z,101134.91
2022-08-20T23:54:37.884Z,101140.84
2022-08-20T23:57:01.638Z,101136.13
2022-08-20T23:59:32.022Z,101145.88
